Time;durP1;ratioP1;P1;durP2;ratioP2;P2;SDS_P1;SDS_P2;PMS_P1;PMS_P2;Temp;Humidity;BMP_temperature;BMP_pressure;BME280_temperature;BME280_humidity;BME280_pressure;Samples;Min_cycle;Max_cycle;Signal;HPM_P1;HPM_P2
2021/04/27 02:29:11;;;;;;;18.80;8.60;;;6.00;52.60;;;;;;5067985;22;20226;-88
2021/04/27 02:31:39;;;;;;;10.40;8.93;;;7.60;54.90;;;;;;4997768;28;20165;-90
2021/04/27 02:34:06;;;;;;;10.32;9.00;;;7.90;55.60;;;;;;4998316;28;20410;-88
2021/04/27 02:36:43;;;;;;;10.20;9.17;;;7.70;55.90;;;;;;4982192;28;20182;-90
2021/04/27 02:39:10;;;;;;;9.70;8.80;;;6.00;55.20;;;;;;4999000;28;20404;-90
2021/04/27 02:41:53;;;;;;;10.07;9.18;;;6.60;56.10;;;;;;4997614;28;20242;-90
2021/04/27 02:45:00;;;;;;;9.70;8.80;;;4.80;55.00;;;;;;4998497;28;20177;-90
2021/04/27 02:47:50;;;;;;;14.48;9.95;;;5.10;55.30;;;;;;4995360;28;20435;-91
2021/04/27 02:50:39;;;;;;;9.90;8.90;;;6.40;55.80;;;;;;4987840;28;20285;-90
2021/04/27 02:56:50;;;;;;;9.87;9.00;;;6.40;56.40;;;;;;4998897;28;20238;-89
2021/04/27 03:00:03;;;;;;;11.37;9.47;;;7.80;58.60;;;;;;4969694;28;20420;-90
2021/04/27 03:02:57;;;;;;;10.85;9.70;;;5.60;56.00;;;;;;5002525;28;20386;-90
2021/04/27 03:06:03;;;;;;;12.18;8.85;;;5.90;57.50;;;;;;4953008;28;20204;-90
2021/04/27 03:08:49;;;;;;;11.57;9.43;;;6.40;56.60;;;;;;5200771;22;20237;-90
2021/04/27 03:17:13;;;;;;;10.75;9.75;;;5.30;56.30;;;;;;5217469;22;20251;-88
2021/04/27 03:19:39;;;;;;;28.92;11.45;;;5.80;57.60;;;;;;4984956;28;20174;-90
2021/04/27 03:22:11;;;;;;;10.60;9.70;;;6.20;59.90;;;;;;5001163;28;20181;-91
2021/04/27 03:24:48;;;;;;;9.45;8.55;;;7.50;59.50;;;;;;4984533;28;20283;-89
2021/04/27 03:27:59;;;;;;;11.80;9.40;;;8.00;59.70;;;;;;4968205;28;20178;-88
2021/04/27 03:30:50;;;;;;;13.73;9.93;;;5.50;57.20;;;;;;4997281;28;20245;-90
2021/04/27 03:33:36;;;;;;;17.98;10.05;;;6.00;57.60;;;;;;4993569;28;20197;-90
2021/04/27 03:36:19;;;;;;;18.13;10.00;;;4.20;57.20;;;;;;5000517;28;20139;-90
2021/04/27 03:38:49;;;;;;;10.50;9.60;;;4.90;56.80;;;;;;4963677;28;20182;-90
2021/04/27 03:41:30;;;;;;;11.15;9.30;;;5.20;57.10;;;;;;4983959;28;20449;-89
2021/04/27 03:44:27;;;;;;;9.90;9.10;;;5.30;57.90;;;;;;4992917;28;20211;-89
2021/04/27 03:47:00;;;;;;;10.70;9.57;;;6.60;58.90;;;;;;4983544;28;20161;-90
2021/04/27 03:52:39;;;;;;;10.82;8.77;;;5.40;58.70;;;;;;4984091;28;20194;-90
2021/04/27 03:55:53;;;;;;;11.98;8.98;;;5.80;58.00;;;;;;4999054;28;20281;-91
2021/04/27 03:58:54;;;;;;;17.55;10.35;;;5.80;58.10;;;;;;4997360;28;20178;-91
2021/04/27 04:02:04;;;;;;;10.18;8.70;;;5.80;58.50;;;;;;4999740;28;20173;-89
2021/04/27 04:04:34;;;;;;;11.80;9.82;;;6.60;59.50;;;;;;4982113;28;20209;-90
2021/04/27 04:07:12;;;;;;;10.23;9.30;;;4.50;59.20;;;;;;4981968;28;20181;-90
2021/04/27 04:09:40;;;;;;;12.75;8.63;;;4.50;57.70;;;;;;4983906;28;20205;-91
2021/04/27 04:12:11;;;;;;;11.65;8.45;;;4.90;58.50;;;;;;4967120;28;20189;-89
2021/04/27 04:15:05;;;;;;;10.60;8.65;;;5.30;57.60;;;;;;4965197;28;20664;-90
2021/04/27 04:17:34;;;;;;;10.10;9.20;;;4.50;55.70;;;;;;4943346;29;20246;-90
2021/04/27 04:20:21;;;;;;;10.30;9.30;;;5.80;57.20;;;;;;4964392;28;20426;-88
2021/04/27 04:23:06;;;;;;;11.52;8.65;;;4.70;56.70;;;;;;4979983;28;20175;-90
2021/04/27 04:26:07;;;;;;;10.35;9.00;;;4.70;54.50;;;;;;4961743;28;20190;-90
2021/04/27 04:28:33;;;;;;;8.60;7.80;;;3.60;56.30;;;;;;5198886;23;20217;-90
2021/04/27 04:30:58;;;;;;;10.23;7.60;;;7.00;58.10;;;;;;4998241;28;20448;-87
2021/04/27 04:33:24;;;;;;;12.50;8.07;;;;;;;;;;4998858;28;20178;-90
2021/04/27 04:35:50;;;;;;;9.90;7.93;;;4.90;53.90;;;;;;4993580;28;20534;-89
2021/04/27 04:38:18;;;;;;;9.70;8.93;;;5.10;56.70;;;;;;4996754;28;20221;-91
2021/04/27 04:41:02;;;;;;;9.57;8.67;;;6.70;57.10;;;;;;4998792;28;20150;-89
2021/04/27 04:43:32;;;;;;;11.55;9.10;;;4.70;54.00;;;;;;4980241;28;20392;-88
2021/04/27 04:46:03;;;;;;;9.23;8.43;;;5.20;52.60;;;;;;4995063;28;20182;-86
2021/04/27 04:48:33;;;;;;;8.82;7.97;;;7.60;55.70;;;;;;4995669;28;20474;-89
2021/04/27 04:51:24;;;;;;;14.32;10.25;;;7.50;54.60;;;;;;4994388;28;20696;-89
2021/04/27 04:54:01;;;;;;;11.00;9.50;;;6.10;54.60;;;;;;4993374;28;20174;-89
2021/04/27 04:57:04;;;;;;;12.33;9.23;;;5.70;56.70;;;;;;4995129;28;20346;-89
2021/04/27 04:59:38;;;;;;;13.05;8.85;;;5.30;54.90;;;;;;4995143;28;20402;-89
2021/04/27 05:02:21;;;;;;;9.82;8.40;;;5.80;56.40;;;;;;4994434;28;20602;-89
2021/04/27 05:05:10;;;;;;;9.13;8.27;;;3.90;56.60;;;;;;4995944;28;20178;-89
2021/04/27 05:08:12;;;;;;;;;;;;;;;;;;;;;
2021/04/27 05:10:38;;;;;;;11.38;10.27;;;5.80;57.20;;;;;;5236522;23;20280;-88
2021/04/27 05:13:04;;;;;;;16.67;10.77;;;6.50;58.00;;;;;;5015833;28;20189;-89
2021/04/27 05:15:33;;;;;;;13.40;9.35;;;5.70;57.70;;;;;;4999183;28;20383;-89
2021/04/27 05:18:02;;;;;;;12.07;8.90;;;5.90;56.20;;;;;;5015248;28;20165;-90
2021/04/27 05:20:28;;;;;;;11.55;7.90;;;7.90;56.80;;;;;;5014837;28;20412;-89
2021/04/27 05:22:54;;;;;;;10.87;8.93;;;5.40;56.10;;;;;;4997920;28;20184;-89
2021/04/27 05:25:22;;;;;;;9.90;8.50;;;7.60;56.80;;;;;;4998334;28;20191;-89
2021/04/27 05:27:50;;;;;;;20.17;9.40;;;7.40;53.10;;;;;;5014547;28;20412;-86
2021/04/27 05:30:31;;;;;;;13.40;8.60;;;7.50;54.30;;;;;;5014537;28;20440;-90
2021/04/27 05:32:59;;;;;;;13.83;7.60;;;9.00;53.10;;;;;;4995625;28;20455;-89
2021/04/27 05:35:25;;;;;;;8.07;7.27;;;8.80;53.00;;;;;;4994456;28;20409;-85
2021/04/27 05:37:50;;;;;;;11.60;8.33;;;10.70;50.20;;;;;;4989010;28;20812;-87
2021/04/27 05:40:17;;;;;;;8.33;7.70;;;10.10;48.60;;;;;;4994930;28;20412;-88
2021/04/27 05:42:43;;;;;;;11.47;8.93;;;10.70;47.70;;;;;;4977857;28;20187;-88
2021/04/27 05:45:11;;;;;;;8.73;7.67;;;9.20;46.20;;;;;;4996099;28;20408;-88
2021/04/27 05:47:37;;;;;;;6.90;6.23;;;9.60;45.10;;;;;;4978475;28;20180;-87
2021/04/27 05:50:04;;;;;;;7.70;7.07;;;9.90;43.40;;;;;;4996660;28;20464;-88
2021/04/27 05:52:30;;;;;;;7.57;6.90;;;9.90;43.60;;;;;;4997070;28;20504;-86
2021/04/27 05:54:56;;;;;;;8.27;7.40;;;10.30;42.10;;;;;;4979076;28;20452;-87
2021/04/27 05:57:21;;;;;;;7.77;7.03;;;10.60;41.20;;;;;;4977912;28;20174;-90
2021/04/27 05:59:47;;;;;;;9.20;7.37;;;10.20;39.70;;;;;;4977630;28;20213;-88
2021/04/27 06:02:12;;;;;;;9.20;7.70;;;10.70;38.80;;;;;;4993777;28;20173;-89
2021/04/27 06:04:38;;;;;;;10.30;8.10;;;11.50;38.30;;;;;;4975469;28;20177;-88
2021/04/27 06:07:04;;;;;;;10.87;8.10;;;11.70;37.10;;;;;;4993650;28;20225;-89
2021/04/27 06:09:29;;;;;;;7.23;6.63;;;10.90;36.00;;;;;;4975919;28;20196;-86
2021/04/27 06:11:56;;;;;;;8.77;7.60;;;14.20;36.80;;;;;;4975836;28;20244;-89
2021/04/27 06:14:23;;;;;;;9.53;8.03;;;12.90;35.60;;;;;;4988930;28;20271;-89
2021/04/27 06:16:49;;;;;;;8.10;6.20;;;12.50;35.30;;;;;;4992761;28;20432;-90
2021/04/27 06:19:17;;;;;;;8.20;6.83;;;12.30;33.00;;;;;;4980225;28;20413;-90
2021/04/27 06:21:43;;;;;;;11.30;7.67;;;12.50;32.70;;;;;;4983643;28;20492;-90
2021/04/27 06:24:10;;;;;;;8.30;7.50;;;12.20;33.00;;;;;;4981201;28;20461;-89
2021/04/27 06:26:35;;;;;;;8.47;7.03;;;14.30;34.40;;;;;;4997570;28;20416;-88
2021/04/27 06:29:01;;;;;;;6.13;5.60;;;12.20;32.60;;;;;;4984356;28;20480;-90
2021/04/27 06:31:27;;;;;;;6.63;6.20;;;12.60;32.10;;;;;;4987343;28;20284;-89
2021/04/27 06:33:52;;;;;;;10.03;5.60;;;13.00;30.80;;;;;;4979016;28;20173;-87
2021/04/27 06:36:18;;;;;;;8.83;5.80;;;13.70;30.30;;;;;;4995017;28;20641;-90
2021/04/27 06:38:44;;;;;;;7.40;6.60;;;15.10;30.30;;;;;;4995616;28;20173;-89
2021/04/27 06:41:10;;;;;;;7.37;6.77;;;13.50;29.30;;;;;;4979001;28;20188;-87
2021/04/27 06:43:36;;;;;;;6.33;5.93;;;14.10;29.40;;;;;;4995839;28;20621;-89
2021/04/27 06:46:02;;;;;;;6.23;5.93;;;15.40;30.00;;;;;;4995917;28;20169;-89
2021/04/27 06:48:28;;;;;;;7.30;6.27;;;14.60;28.60;;;;;;4985078;28;20946;-89
2021/04/27 06:50:54;;;;;;;6.07;5.50;;;14.20;28.10;;;;;;4980138;28;20503;-89
2021/04/27 06:53:20;;;;;;;6.23;5.83;;;15.10;28.10;;;;;;4976501;28;20651;-84
2021/04/27 06:55:47;;;;;;;9.50;6.17;;;15.30;28.30;;;;;;4986606;28;20547;-87
2021/04/27 06:58:14;;;;;;;8.00;6.40;;;15.80;28.00;;;;;;4993587;28;20173;-87
2021/04/27 07:00:40;;;;;;;5.97;5.47;;;16.40;27.20;;;;;;4975559;28;20424;-88
2021/04/27 07:03:06;;;;;;;7.70;5.73;;;16.30;26.90;;;;;;4976014;28;20444;-87
2021/04/27 07:05:32;;;;;;;11.83;6.67;;;16.50;26.90;;;;;;4993806;28;20428;-87
2021/04/27 07:07:58;;;;;;;6.60;6.00;;;15.40;26.50;;;;;;4976160;28;20431;-87
2021/04/27 07:10:24;;;;;;;8.73;5.90;;;16.70;26.60;;;;;;4994764;28;20251;-86
2021/04/27 07:12:50;;;;;;;6.40;6.00;;;16.50;26.50;;;;;;4976234;28;20994;-88
2021/04/27 07:15:17;;;;;;;5.37;5.07;;;16.50;26.70;;;;;;4977169;28;20433;-88
2021/04/27 07:17:43;;;;;;;7.30;6.07;;;16.60;27.00;;;;;;4993904;28;20420;-88
2021/04/27 07:20:15;;;;;;;6.17;5.77;;;16.90;26.60;;;;;;4997848;28;20417;-89
2021/04/27 07:22:41;;;;;;;6.50;6.00;;;17.90;25.80;;;;;;4990114;28;20456;-92
2021/04/27 07:25:08;;;;;;;5.23;4.97;;;18.60;26.00;;;;;;5001671;28;20440;-84
2021/04/27 07:27:34;;;;;;;5.63;5.37;;;18.80;25.40;;;;;;4992906;28;20460;-83
2021/04/27 07:30:02;;;;;;;7.03;5.80;;;17.80;25.30;;;;;;4999660;28;20464;-90
2021/04/27 07:32:28;;;;;;;6.20;5.70;;;18.20;25.20;;;;;;4992583;28;20177;-91
2021/04/27 07:34:53;;;;;;;7.07;5.27;;;18.60;25.30;;;;;;4968426;28;20484;-91
2021/04/27 07:37:34;;;;;;;6.10;5.40;;;18.50;25.50;;;;;;4972428;28;20178;-89
2021/04/27 07:40:00;;;;;;;6.60;6.03;;;18.90;25.40;;;;;;4987338;28;20272;-89
2021/04/27 07:42:28;;;;;;;5.70;4.53;;;20.90;25.90;;;;;;4970243;28;20830;-92
2021/04/27 07:44:53;;;;;;;5.40;5.00;;;20.40;24.80;;;;;;4966530;28;20448;-90
2021/04/27 07:47:19;;;;;;;12.47;5.93;;;21.50;25.70;;;;;;4981446;28;20480;-89
2021/04/27 07:49:45;;;;;;;5.73;5.23;;;20.20;25.10;;;;;;4975095;28;20220;-89
2021/04/27 07:52:10;;;;;;;7.83;5.50;;;20.20;24.00;;;;;;4963228;28;20181;-89
2021/04/27 07:54:36;;;;;;;9.00;8.10;;;22.10;24.70;;;;;;4978902;28;20177;-89
2021/04/27 07:57:02;;;;;;;9.83;7.10;;;22.60;25.30;;;;;;4980738;28;20185;-90
2021/04/27 07:59:28;;;;;;;4.73;4.53;;;22.80;24.50;;;;;;4963870;28;20185;-89
2021/04/27 08:01:54;;;;;;;6.03;5.13;;;21.90;24.00;;;;;;4979975;28;20925;-89
2021/04/27 08:04:20;;;;;;;4.30;4.10;;;;;;;;;;4979547;28;20180;-88
2021/04/27 08:06:45;;;;;;;5.13;4.07;;;22.40;23.40;;;;;;4961961;28;20673;-91
2021/04/27 08:09:11;;;;;;;4.27;3.97;;;24.40;23.80;;;;;;4962007;28;20464;-88
2021/04/27 08:11:39;;;;;;;3.70;3.57;;;23.50;22.80;;;;;;4978984;28;20580;-88
2021/04/27 08:14:04;;;;;;;6.90;5.50;;;23.40;22.50;;;;;;4984121;28;20181;-90
2021/04/27 08:16:30;;;;;;;8.07;7.23;;;22.50;22.60;;;;;;4979062;28;20443;-90
2021/04/27 08:18:56;;;;;;;3.60;3.50;;;25.20;23.50;;;;;;4961309;28;20991;-88
2021/04/27 08:21:23;;;;;;;4.53;4.20;;;24.10;21.70;;;;;;4977331;28;20174;-88
2021/04/27 08:23:49;;;;;;;3.27;3.03;;;23.10;21.80;;;;;;4978439;28;20493;-90
2021/04/27 08:26:15;;;;;;;4.93;3.90;;;23.60;21.70;;;;;;4981248;28;20425;-87
2021/04/27 08:28:40;;;;;;;3.43;3.23;;;23.40;21.70;;;;;;4981599;28;20729;-90
2021/04/27 08:31:07;;;;;;;4.43;3.30;;;24.50;21.40;;;;;;4974768;28;20680;-89
2021/04/27 08:33:33;;;;;;;3.40;3.30;;;21.30;20.40;;;;;;4970941;28;20436;-88
2021/04/27 08:35:58;;;;;;;2.83;2.73;;;22.30;21.40;;;;;;4963851;28;20433;-90
2021/04/27 08:38:25;;;;;;;3.20;3.10;;;21.90;20.80;;;;;;4632757;28;10000206;-89
2021/04/27 08:40:51;;;;;;;3.97;3.03;;;21.80;21.70;;;;;;4999512;28;20197;-85
2021/04/27 08:43:19;;;;;;;3.37;3.17;;;23.70;21.70;;;;;;5002193;28;20424;-89
2021/04/27 08:45:45;;;;;;;4.03;3.20;;;21.30;20.40;;;;;;4985774;28;20940;-89
2021/04/27 08:48:15;;;;;;;3.83;3.57;;;22.70;21.80;;;;;;4982833;28;20558;-87
2021/04/27 08:51:10;;;;;;;3.03;3.03;;;22.50;21.30;;;;;;5009430;28;20208;-89
2021/04/27 08:53:38;;;;;;;3.27;3.27;;;22.60;20.90;;;;;;5014187;28;20370;-89
2021/04/27 08:56:13;;;;;;;3.67;3.37;;;23.20;21.10;;;;;;4996228;28;20483;-88
2021/04/27 08:58:40;;;;;;;8.87;3.60;;;24.00;20.90;;;;;;4990961;28;20423;-91
2021/04/27 09:01:06;;;;;;;3.10;3.00;;;23.80;21.00;;;;;;4961455;28;20507;-86
2021/04/27 09:03:46;;;;;;;3.87;3.67;;;24.80;21.20;;;;;;4994414;28;20478;-90
2021/04/27 09:06:17;;;;;;;3.57;3.37;;;25.70;20.60;;;;;;4994550;28;20474;-85
2021/04/27 09:08:43;;;;;;;3.60;3.47;;;25.00;20.80;;;;;;4978090;28;20439;-87
2021/04/27 09:11:35;;;;;;;3.80;3.60;;;24.30;20.60;;;;;;4994767;28;20480;-88
2021/04/27 09:14:29;;;;;;;6.60;5.90;;;24.10;20.50;;;;;;4990613;28;20776;-88
2021/04/27 09:17:00;;;;;;;3.63;3.50;;;23.80;20.70;;;;;;5010955;28;20444;-86
2021/04/27 09:22:39;;;;;;;2.70;2.70;;;24.60;20.60;;;;;;4831849;22;10002043;-89
2021/04/27 09:28:31;;;;;;;4.40;3.00;;;24.30;20.20;;;;;;5261624;22;20501;-90
2021/04/27 09:30:57;;;;;;;3.37;3.27;;;25.30;20.10;;;;;;4956943;29;20481;-90
2021/04/27 09:33:27;;;;;;;3.77;3.67;;;25.50;20.70;;;;;;4972393;28;20433;-89
2021/04/27 09:35:54;;;;;;;3.37;3.27;;;26.30;21.40;;;;;;4971715;28;20471;-90
2021/04/27 09:38:28;;;;;;;3.37;3.17;;;25.00;21.30;;;;;;4958233;29;20430;-84
2021/04/27 09:41:02;;;;;;;2.93;2.90;;;24.90;20.00;;;;;;4953420;29;20441;-84
2021/04/27 09:43:45;;;;;;;3.47;3.37;;;25.10;19.70;;;;;;4953707;29;20402;-85
2021/04/27 09:46:15;;;;;;;3.80;3.60;;;25.70;20.10;;;;;;4950268;29;20453;-83
2021/04/27 09:48:44;;;;;;;3.97;3.77;;;25.40;20.50;;;;;;4951550;29;20942;-83
2021/04/27 09:51:12;;;;;;;3.17;2.97;;;25.10;20.00;;;;;;4952867;29;20992;-85
2021/04/27 09:53:46;;;;;;;3.57;3.37;;;25.20;19.90;;;;;;4966808;29;20411;-87
2021/04/27 09:56:38;;;;;;;3.67;2.70;;;25.30;20.40;;;;;;4944502;29;20469;-90
2021/04/27 09:59:11;;;;;;;2.93;2.83;;;25.40;20.20;;;;;;4956631;29;20483;-91
2021/04/27 10:01:37;;;;;;;3.37;3.17;;;25.10;19.80;;;;;;4947716;29;20440;-91
2021/04/27 10:04:05;;;;;;;59.87;38.87;;;27.20;20.30;;;;;;4968004;29;20430;-90
2021/04/27 10:06:34;;;;;;;5.57;5.33;;;25.60;19.70;;;;;;4967641;29;20502;-90
2021/04/27 10:09:03;;;;;;;6.43;3.67;;;26.10;20.70;;;;;;4967766;28;20426;-90
2021/04/27 10:11:33;;;;;;;3.63;3.53;;;26.10;20.50;;;;;;4946525;29;20498;-89
2021/04/27 10:14:03;;;;;;;5.07;4.83;;;27.00;20.50;;;;;;4965203;29;20422;-87
2021/04/27 10:16:30;;;;;;;3.60;3.30;;;27.10;20.00;;;;;;4973452;29;20415;-90
2021/04/27 10:18:58;;;;;;;4.00;3.80;;;27.30;19.90;;;;;;4971404;29;20443;-89
2021/04/27 10:21:25;;;;;;;3.90;3.70;;;26.90;20.00;;;;;;4968377;29;20808;-89
2021/04/27 10:24:27;;;;;;;3.33;3.23;;;27.30;20.70;;;;;;4953649;29;20414;-90
2021/04/27 10:26:54;;;;;;;4.67;4.00;;;25.70;20.00;;;;;;4946669;28;20482;-89
2021/04/27 10:29:26;;;;;;;5.30;4.80;;;27.00;19.90;;;;;;4954979;29;20461;-86
2021/04/27 10:32:21;;;;;;;3.80;3.50;;;27.30;19.40;;;;;;4956412;29;20426;-86
2021/04/27 10:35:07;;;;;;;4.00;3.80;;;27.20;19.50;;;;;;4956769;29;20422;-86
2021/04/27 10:38:21;;;;;;;4.00;3.80;;;26.50;19.20;;;;;;4943410;29;20441;-88
2021/04/27 10:41:03;;;;;;;3.63;3.33;;;25.10;20.20;;;;;;4919103;29;20416;-90
2021/04/27 10:43:58;;;;;;;11.17;7.57;;;25.50;21.00;;;;;;4971765;29;20418;-92
2021/04/27 10:46:46;;;;;;;12.10;7.27;;;27.10;19.90;;;;;;4971030;28;20431;-91
2021/04/27 10:49:28;;;;;;;7.10;5.00;;;25.70;19.10;;;;;;4974308;29;20458;-91
2021/04/27 10:52:04;;;;;;;8.00;6.30;;;27.30;19.60;;;;;;4953504;29;20448;-92
2021/04/27 10:55:15;;;;;;;4.43;4.10;;;27.30;19.80;;;;;;4973537;29;20402;-90
2021/04/27 10:57:49;;;;;;;6.07;5.50;;;28.00;19.30;;;;;;4973212;29;20493;-88
2021/04/27 11:00:45;;;;;;;4.20;3.50;;;27.50;19.80;;;;;;4957967;28;20407;-88
2021/04/27 11:03:24;;;;;;;4.90;4.50;;;27.30;19.10;;;;;;4957957;29;20417;-88
2021/04/27 11:06:15;;;;;;;4.20;4.00;;;27.00;19.10;;;;;;4955614;29;20422;-91
2021/04/27 11:09:14;;;;;;;4.47;4.00;;;26.20;19.10;;;;;;4973088;29;20426;-89
2021/04/27 11:11:41;;;;;;;3.83;3.63;;;26.40;19.50;;;;;;4954886;29;20470;-88
2021/04/27 11:14:35;;;;;;;3.37;3.27;;;26.40;19.60;;;;;;4955644;29;20430;-91
2021/04/27 11:17:33;;;;;;;4.70;4.40;;;26.00;19.70;;;;;;4957852;28;20430;-89
2021/04/27 11:20:10;;;;;;;14.93;9.73;;;26.00;19.20;;;;;;4971993;28;20402;-90
2021/04/27 11:22:51;;;;;;;3.70;3.50;;;26.20;19.20;;;;;;4975365;29;20406;-88
2021/04/27 11:25:38;;;;;;;3.70;3.70;;;26.70;19.30;;;;;;4960005;29;20448;-89
2021/04/27 11:28:23;;;;;;;6.53;5.93;;;26.10;19.10;;;;;;4975745;29;20470;-92
2021/04/27 11:31:18;;;;;;;52.00;33.63;;;26.60;19.90;;;;;;4993540;28;20492;-92
2021/04/27 11:34:25;;;;;;;9.30;7.90;;;27.70;19.30;;;;;;4954896;29;20479;-91
2021/04/27 11:36:52;;;;;;;46.20;32.93;;;28.00;18.90;;;;;;4951957;29;20495;-93
2021/04/27 11:39:26;;;;;;;9.23;8.70;;;28.80;19.40;;;;;;4952056;29;20430;-87
2021/04/27 11:41:57;;;;;;;5.03;4.87;;;26.90;19.60;;;;;;4955155;29;20454;-85
2021/04/27 11:44:40;;;;;;;6.17;5.77;;;26.80;19.30;;;;;;4944969;29;20431;-90
2021/04/27 11:47:14;;;;;;;3.87;3.77;;;27.30;19.40;;;;;;4943379;29;20879;-90
2021/04/27 11:49:58;;;;;;;3.83;3.60;;;27.50;18.70;;;;;;4940615;29;20462;-89
2021/04/27 11:52:44;;;;;;;3.67;3.57;;;27.60;18.90;;;;;;4944009;29;20433;-90
2021/04/27 11:55:27;;;;;;;4.73;4.43;;;26.20;18.20;;;;;;4942319;29;20422;-91
2021/04/27 11:57:59;;;;;;;10.10;7.20;;;27.70;18.60;;;;;;4945924;29;20410;-90
2021/04/27 12:00:43;;;;;;;4.93;4.63;;;27.60;18.70;;;;;;4941275;29;20430;-90
2021/04/27 12:03:39;;;;;;;14.80;12.87;;;27.70;19.20;;;;;;4941780;29;20442;-91
2021/04/27 12:06:16;;;;;;;3.17;3.00;;;27.40;18.60;;;;;;4939996;29;20927;-88
2021/04/27 12:08:55;;;;;;;7.03;5.90;;;27.50;18.60;;;;;;4944854;29;20415;-91
2021/04/27 12:11:25;;;;;;;17.73;14.23;;;27.90;18.90;;;;;;4944536;29;20449;-92
2021/04/27 12:14:03;;;;;;;4.17;4.07;;;27.10;18.90;;;;;;4944647;29;20856;-90
2021/04/27 12:16:31;;;;;;;5.43;5.07;;;27.30;19.00;;;;;;4940755;29;20431;-89
2021/04/27 12:19:07;;;;;;;4.10;3.80;;;27.60;19.00;;;;;;4946590;29;20471;-91
2021/04/27 12:21:50;;;;;;;4.83;4.57;;;26.90;18.90;;;;;;4944070;29;20458;-89
2021/04/27 12:24:23;;;;;;;4.77;4.37;;;27.20;19.80;;;;;;4946730;29;20403;-91
2021/04/27 12:27:05;;;;;;;4.50;4.40;;;27.00;19.30;;;;;;4946783;29;20530;-87
2021/04/27 12:29:37;;;;;;;3.93;3.83;;;26.10;18.90;;;;;;4938676;29;20573;-89
2021/04/27 12:32:14;;;;;;;4.87;4.60;;;25.70;19.40;;;;;;4935057;29;20450;-88
2021/04/27 12:34:58;;;;;;;4.47;4.30;;;25.80;19.20;;;;;;4938662;29;20414;-87
2021/04/27 12:37:33;;;;;;;4.40;4.10;;;26.40;19.10;;;;;;4938487;29;20758;-89
2021/04/27 12:40:18;;;;;;;3.93;3.73;;;26.50;19.00;;;;;;4597795;29;10000170;-89
2021/04/27 12:43:31;;;;;;;5.07;4.27;;;27.00;18.90;;;;;;4947193;29;20406;-92
2021/04/27 12:46:09;;;;;;;4.60;4.40;;;27.90;19.30;;;;;;4953491;29;20438;-90
2021/04/27 12:48:35;;;;;;;7.37;6.67;;;28.60;18.90;;;;;;4955048;29;20425;-92
2021/04/27 12:51:08;;;;;;;6.57;6.27;;;28.20;20.60;;;;;;4971246;29;20490;-91
2021/04/27 12:53:41;;;;;;;4.77;4.47;;;26.80;19.10;;;;;;4966746;29;20427;-90
2021/04/27 12:56:14;;;;;;;5.40;5.00;;;26.30;19.90;;;;;;4965892;28;20457;-90
2021/04/27 12:58:46;;;;;;;4.60;4.40;;;26.70;19.80;;;;;;4970195;29;20438;-87
2021/04/27 13:01:23;;;;;;;4.37;4.17;;;27.40;19.30;;;;;;4969853;29;20795;-92
2021/04/27 13:03:57;;;;;;;3.73;3.63;;;25.90;18.60;;;;;;4931060;29;20449;-90
2021/04/27 13:06:26;;;;;;;4.50;4.17;;;27.30;19.40;;;;;;4956890;29;20541;-90
2021/04/27 13:09:17;;;;;;;5.93;5.57;;;28.30;19.80;;;;;;4941865;29;20913;-90
2021/04/27 13:11:58;;;;;;;4.63;4.23;;;29.30;20.30;;;;;;4969061;29;20406;-91
2021/04/27 13:14:36;;;;;;;4.23;4.03;;;27.40;19.30;;;;;;4946188;29;20901;-89
2021/04/27 13:17:05;;;;;;;4.90;4.70;;;27.90;19.20;;;;;;4959147;29;20454;-90
2021/04/27 13:19:48;;;;;;;5.30;5.00;;;27.90;19.60;;;;;;4942007;29;20407;-90
2021/04/27 13:22:21;;;;;;;5.53;4.90;;;28.10;19.60;;;;;;4955827;29;21345;-88
2021/04/27 13:24:53;;;;;;;6.00;5.37;;;28.20;19.90;;;;;;4961748;29;20905;-91
2021/04/27 13:27:28;;;;;;;3.90;3.80;;;27.50;19.00;;;;;;4943784;29;20513;-90
2021/04/27 13:30:07;;;;;;;5.13;4.83;;;27.90;18.90;;;;;;4941897;29;20482;-89
2021/04/27 13:32:34;;;;;;;5.40;5.20;;;28.30;19.00;;;;;;4945981;29;20938;-87
2021/04/27 13:35:26;;;;;;;3.97;3.87;;;26.90;18.90;;;;;;4949265;29;20439;-88
2021/04/27 13:37:57;;;;;;;4.03;3.83;;;26.00;19.50;;;;;;4934369;29;20722;-89
2021/04/27 13:40:24;;;;;;;4.13;4.00;;;26.10;19.80;;;;;;4961585;29;20498;-91
2021/04/27 13:43:02;;;;;;;5.03;4.73;;;25.90;20.10;;;;;;4955052;29;20426;-89
2021/04/27 13:45:30;;;;;;;7.90;5.20;;;25.20;19.90;;;;;;4966385;28;20482;-89
2021/04/27 13:48:06;;;;;;;5.30;4.83;;;25.20;20.40;;;;;;4932180;29;20435;-90
2021/04/27 13:50:33;;;;;;;4.43;4.20;;;24.90;20.20;;;;;;4932189;29;20571;-89
2021/04/27 13:52:59;;;;;;;4.30;3.90;;;25.00;20.50;;;;;;4950195;29;20478;-88
2021/04/27 13:55:26;;;;;;;4.60;4.47;;;25.20;21.30;;;;;;4946741;29;20423;-90
2021/04/27 13:57:52;;;;;;;5.10;4.50;;;25.60;20.20;;;;;;4930676;29;20443;-90
2021/04/27 14:00:25;;;;;;;7.47;5.50;;;26.00;20.70;;;;;;4932018;29;20442;-90
2021/04/27 14:02:54;;;;;;;4.30;4.20;;;25.90;20.50;;;;;;4930911;29;20504;-88
2021/04/27 14:05:20;;;;;;;3.90;3.80;;;25.10;20.70;;;;;;4942520;29;20415;-90
2021/04/27 14:07:45;;;;;;;5.27;4.90;;;26.80;21.60;;;;;;4946897;29;20443;-92
2021/04/27 14:10:15;;;;;;;5.10;4.60;;;23.90;20.30;;;;;;4924974;29;20215;-86
2021/04/27 14:12:41;;;;;;;4.90;4.50;;;26.20;20.40;;;;;;4938400;29;20210;-88
2021/04/27 14:15:08;;;;;;;13.27;11.30;;;26.30;20.20;;;;;;4920055;29;20415;-86
2021/04/27 14:17:33;;;;;;;9.73;9.10;;;26.70;20.10;;;;;;4948354;29;20417;-88
2021/04/27 14:19:59;;;;;;;4.90;4.60;;;26.20;20.20;;;;;;4954918;29;20778;-86
2021/04/27 14:22:25;;;;;;;5.27;5.07;;;25.80;19.80;;;;;;4955257;29;20171;-86
2021/04/27 14:24:53;;;;;;;5.40;4.63;;;26.10;19.80;;;;;;4957019;29;20225;-86
2021/04/27 14:27:19;;;;;;;4.80;4.70;;;25.80;20.80;;;;;;4959672;29;20466;-85
2021/04/27 14:29:45;;;;;;;4.30;4.20;;;27.20;20.60;;;;;;4959337;29;20469;-88
2021/04/27 14:32:11;;;;;;;4.80;4.37;;;24.30;19.90;;;;;;4959366;29;20595;-84
2021/04/27 14:34:39;;;;;;;4.30;4.10;;;27.50;21.10;;;;;;4962984;29;20190;-89
2021/04/27 14:37:08;;;;;;;5.03;4.20;;;25.30;20.70;;;;;;4947396;29;20533;-89
2021/04/27 14:39:38;;;;;;;4.53;4.23;;;25.40;21.60;;;;;;4944163;29;20434;-90
2021/04/27 14:42:04;;;;;;;6.03;5.53;;;25.20;20.40;;;;;;4946588;29;20441;-92
2021/04/27 14:44:30;;;;;;;56.80;40.33;;;25.10;21.40;;;;;;4951231;29;20429;-90
2021/04/27 14:47:01;;;;;;;14.20;12.60;;;24.90;20.80;;;;;;4968011;29;20418;-89
2021/04/27 14:49:29;;;;;;;5.57;4.67;;;24.90;21.00;;;;;;4967831;29;20206;-90
2021/04/27 14:51:57;;;;;;;4.90;4.50;;;25.60;21.70;;;;;;4966760;29;20458;-89
2021/04/27 14:54:31;;;;;;;4.47;4.37;;;23.60;21.70;;;;;;4972060;29;20556;-90
2021/04/27 14:57:27;;;;;;;5.33;5.03;;;23.40;21.30;;;;;;4970581;28;20421;-90
2021/04/27 15:00:00;;;;;;;4.97;4.67;;;25.70;22.30;;;;;;4971338;28;20873;-87
2021/04/27 15:02:39;;;;;;;23.83;18.80;;;23.50;21.00;;;;;;4966268;29;20546;-87
2021/04/27 15:05:12;;;;;;;6.27;5.63;;;23.00;21.50;;;;;;4971789;28;20394;-88
2021/04/27 15:07:41;;;;;;;5.70;4.80;;;23.00;22.40;;;;;;4968649;29;20430;-89
2021/04/27 15:10:13;;;;;;;12.73;11.47;;;22.20;21.60;;;;;;4970229;29;20530;-90
2021/04/27 15:12:39;;;;;;;7.03;6.43;;;22.20;21.90;;;;;;4962121;28;20426;-88
2021/04/27 15:15:07;;;;;;;6.53;6.03;;;21.30;21.60;;;;;;4945353;29;20445;-89
2021/04/27 15:17:33;;;;;;;5.00;4.70;;;20.60;21.70;;;;;;4945718;29;20630;-87
2021/04/27 15:20:03;;;;;;;13.47;11.07;;;20.00;22.00;;;;;;4956974;29;20461;-87
2021/04/27 15:22:33;;;;;;;8.33;7.60;;;19.80;22.30;;;;;;4957773;29;20171;-89
2021/04/27 15:24:59;;;;;;;7.43;6.57;;;19.60;22.70;;;;;;4964064;29;20461;-89
2021/04/27 15:27:25;;;;;;;7.77;6.63;;;19.30;22.70;;;;;;4959007;29;20937;-84
2021/04/27 15:29:51;;;;;;;9.37;8.57;;;20.70;23.80;;;;;;4953901;29;20557;-85
2021/04/27 15:32:18;;;;;;;6.37;5.97;;;19.10;22.60;;;;;;4953623;29;20201;-83
2021/04/27 15:34:43;;;;;;;6.00;5.60;;;18.90;22.70;;;;;;4953032;29;20426;-84
2021/04/27 15:37:09;;;;;;;8.80;5.60;;;18.90;22.50;;;;;;4953967;29;20421;-83
2021/04/27 15:39:35;;;;;;;5.13;4.83;;;18.80;22.50;;;;;;4936316;29;20181;-84
2021/04/27 15:42:02;;;;;;;6.63;6.10;;;18.70;22.60;;;;;;4936523;29;20190;-84
2021/04/27 15:44:28;;;;;;;6.60;6.20;;;18.80;22.90;;;;;;4953321;29;20972;-84
2021/04/27 15:46:54;;;;;;;6.43;5.93;;;19.60;23.30;;;;;;4953103;29;20509;-84
2021/04/27 15:49:20;;;;;;;5.50;5.03;;;18.70;22.70;;;;;;4935794;29;20213;-84
2021/04/27 15:51:46;;;;;;;5.67;5.47;;;18.70;22.70;;;;;;4952863;29;20429;-83
2021/04/27 15:54:15;;;;;;;4.97;4.57;;;18.70;22.90;;;;;;4954088;29;20426;-85
2021/04/27 15:56:40;;;;;;;6.13;4.73;;;18.60;23.10;;;;;;4936147;29;20175;-85
2021/04/27 15:59:06;;;;;;;17.27;12.60;;;18.50;23.10;;;;;;4953198;29;20542;-84
2021/04/27 16:01:38;;;;;;;11.00;9.90;;;18.70;23.20;;;;;;4957034;29;20181;-88
2021/04/27 16:04:05;;;;;;;9.40;8.57;;;18.50;23.00;;;;;;4960308;29;20202;-89
2021/04/27 16:06:30;;;;;;;6.47;6.00;;;18.30;23.00;;;;;;4960743;28;20922;-87
2021/04/27 16:08:57;;;;;;;9.90;8.30;;;18.20;23.30;;;;;;4960355;29;20202;-86